Time;durP1;ratioP1;P1;durP2;ratioP2;P2;SDS_P1;SDS_P2;PMS_P1;PMS_P2;Temp;Humidity;BMP_temperature;BMP_pressure;BME280_temperature;BME280_humidity;BME280_pressure;Samples;Min_cycle;Max_cycle;Signal;HPM_P1;HPM_P2
2022/10/31 00:01:26;;;;;;;31.15;18.23;;;;;;;6.42;95.70;99907.52;1647794;85;21941;-65
2022/10/31 00:03:54;;;;;;;24.98;17.60;;;;;;;6.46;95.82;99907.83;1662347;83;21020;-65
2022/10/31 00:06:22;;;;;;;26.62;17.35;;;;;;;6.49;95.94;99905.15;1683633;83;21607;-65
2022/10/31 00:08:59;;;;;;;29.10;18.35;;;;;;;6.48;95.70;99901.32;1690423;83;21601;-65
2022/10/31 00:11:26;;;;;;;24.55;16.85;;;;;;;6.43;95.46;99907.07;1686036;83;26688;-66
2022/10/31 00:13:53;;;;;;;24.47;16.65;;;;;;;6.43;95.50;99909.22;1688014;83;21893;-66
2022/10/31 00:16:25;;;;;;;22.15;16.35;;;;;;;6.47;95.55;99909.55;1682437;83;21001;-66
2022/10/31 00:18:56;;;;;;;24.12;16.48;;;;;;;6.51;95.57;99903.83;1681512;83;21024;-65
2022/10/31 00:21:23;;;;;;;21.45;13.13;;;;;;;6.55;95.75;99901.98;1682324;83;21012;-66
2022/10/31 00:23:49;;;;;;;;;;;;;;;6.63;96.15;99905.22;1684649;83;20977;-65
2022/10/31 00:26:16;;;;;;;25.30;15.58;;;;;;;6.78;96.59;99897.02;1686129;83;21747;-66
2022/10/31 00:28:43;;;;;;;30.88;15.83;;;;;;;6.93;96.79;99901.74;1681373;83;20912;-66
2022/10/31 00:31:12;;;;;;;32.17;15.23;;;;;;;7.06;96.71;99893.61;1682776;83;20997;-66
2022/10/31 00:33:41;;;;;;;30.27;15.05;;;;;;;7.14;96.79;99899.39;1688641;83;20997;-66
2022/10/31 00:36:11;;;;;;;33.33;16.27;;;;;;;7.20;96.79;99904.42;1688927;83;21013;-66
2022/10/31 00:38:38;;;;;;;58.60;15.88;;;;;;;7.24;96.71;99906.02;1683725;83;21104;-66
2022/10/31 00:41:05;;;;;;;48.08;16.82;;;;;;;7.25;96.63;99899.91;1683804;83;20989;-66
2022/10/31 00:43:31;;;;;;;54.00;17.30;;;;;;;7.35;96.81;99906.53;1686476;83;20981;-66
2022/10/31 00:45:58;;;;;;;64.10;16.00;;;;;;;7.42;97.13;99908.94;1682058;83;20922;-66
2022/10/31 00:48:25;;;;;;;57.93;14.10;;;;;;;7.51;97.28;99906.07;1683577;83;21610;-66
2022/10/31 00:50:52;;;;;;;60.87;16.97;;;;;;;7.63;97.29;99905.22;1649801;85;21751;-66
2022/10/31 00:53:18;;;;;;;42.95;15.48;;;;;;;7.76;97.30;99909.58;1682728;83;21265;-66
2022/10/31 00:55:45;;;;;;;48.52;15.45;;;;;;;7.87;97.48;99900.55;1712026;82;21032;-66
2022/10/31 00:58:12;;;;;;;96.00;14.60;;;;;;;7.95;97.63;99906.35;1707975;82;21534;-66
2022/10/31 01:00:39;;;;;;;49.25;12.58;;;;;;;8.06;97.77;99905.53;1710750;82;21082;-66
2022/10/31 01:03:06;;;;;;;19.10;11.88;;;;;;;8.15;97.85;99905.67;1699969;82;21117;-66
2022/10/31 01:05:32;;;;;;;67.70;16.05;;;;;;;8.26;98.15;99912.23;1709422;82;21087;-66
2022/10/31 01:07:59;;;;;;;48.58;12.55;;;;;;;8.40;98.24;99910.91;1701590;82;21052;-66
2022/10/31 01:10:26;;;;;;;36.05;11.15;;;;;;;8.47;98.38;99909.80;1706551;82;21015;-67
2022/10/31 01:12:53;;;;;;;42.78;11.97;;;;;;;8.58;98.61;99909.42;1719247;82;21570;-66
2022/10/31 01:15:22;;;;;;;54.90;12.57;;;;;;;8.68;98.65;99909.03;1710654;82;21440;-66
2022/10/31 01:17:50;;;;;;;47.10;12.05;;;;;;;8.77;98.61;99903.09;1712026;82;21052;-66
2022/10/31 01:20:18;;;;;;;20.43;11.03;;;;;;;8.84;98.73;99904.09;1701177;82;20949;-66
2022/10/31 01:22:44;;;;;;;42.40;11.60;;;;;;;8.98;98.81;99908.78;1712554;82;21640;-66
2022/10/31 01:25:11;;;;;;;42.15;11.68;;;;;;;9.07;98.93;99912.33;1704525;82;20965;-66
2022/10/31 01:27:38;;;;;;;;;;;;;;;9.19;99.20;99907.98;1708654;82;21062;-66
2022/10/31 01:30:06;;;;;;;44.25;11.18;;;;;;;9.29;99.31;99905.84;1713156;82;20103;-67
2022/10/31 01:32:33;;;;;;;30.92;11.25;;;;;;;9.33;99.28;99914.42;1708814;82;21079;-66
2022/10/31 01:34:59;;;;;;;67.30;11.00;;;;;;;9.41;99.38;99909.76;1709388;82;21581;-66
2022/10/31 01:37:26;;;;;;;55.57;11.23;;;;;;;9.48;99.43;99911.19;1701556;82;20989;-64
2022/10/31 01:39:53;;;;;;;31.50;10.68;;;;;;;9.55;99.38;99907.45;1711958;82;21328;-64
2022/10/31 01:42:22;;;;;;;39.85;11.55;;;;;;;9.60;99.40;99905.48;1725533;82;20946;-64
2022/10/31 01:44:59;;;;;;;54.90;10.55;;;;;;;9.61;99.21;99904.59;1716091;82;21119;-64
2022/10/31 01:47:37;;;;;;;49.83;11.48;;;;;;;9.61;99.19;99907.19;1725083;82;21048;-63
2022/10/31 01:50:11;;;;;;;66.90;11.08;;;;;;;9.64;99.14;99908.83;1720483;82;21008;-64
2022/10/31 01:52:46;;;;;;;56.20;10.70;;;;;;;9.68;99.31;99897.81;1711266;82;21112;-64
2022/10/31 01:55:26;;;;;;;51.10;10.32;;;;;;;9.72;99.43;99898.06;1721695;82;21040;-64
2022/10/31 01:57:58;;;;;;;69.60;11.45;;;;;;;9.71;99.60;99899.83;1720065;82;21041;-64
2022/10/31 02:00:25;;;;;;;50.23;10.45;;;;;;;9.79;99.54;99899.52;1725891;82;20988;-64
2022/10/31 02:02:51;;;;;;;70.12;10.78;;;;;;;9.81;99.69;99892.50;1726524;82;20964;-64
2022/10/31 02:05:23;;;;;;;41.73;11.25;;;;;;;9.85;99.78;99891.44;1720893;82;21094;-64
2022/10/31 02:08:10;;;;;;;13.85;10.25;;;;;;;9.94;100.00;99889.78;1718591;81;20969;-66
2022/10/31 02:10:38;;;;;;;49.95;11.28;;;;;;;10.02;100.00;99891.58;1721181;82;21514;-65
2022/10/31 02:13:07;;;;;;;101.90;11.78;;;;;;;10.07;100.00;99889.63;1687999;83;21483;-66
2022/10/31 02:15:36;;;;;;;39.10;11.08;;;;;;;10.11;100.00;99894.71;1681992;85;21041;-66
2022/10/31 02:18:05;;;;;;;59.83;12.55;;;;;;;10.14;100.00;99894.58;1727914;82;21858;-65
2022/10/31 02:20:59;;;;;;;88.60;12.47;;;;;;;10.19;100.00;99901.76;1732647;82;20988;-66
2022/10/31 02:24:14;;;;;;;45.98;11.65;;;;;;;10.21;100.00;99899.94;1695146;83;21022;-66
2022/10/31 02:27:04;;;;;;;63.20;10.72;;;;;;;10.27;100.00;99901.01;1656039;84;21676;-66
2022/10/31 02:30:08;;;;;;;72.72;12.75;;;;;;;10.33;100.00;99905.95;1657035;85;21068;-66
2022/10/31 02:32:54;;;;;;;55.45;11.22;;;;;;;10.38;100.00;99909.22;1635053;86;22006;-65
2022/10/31 02:35:46;;;;;;;80.50;12.43;;;;;;;10.45;100.00;99913.28;1655596;85;21107;-65
2022/10/31 02:38:24;;;;;;;38.83;12.00;;;;;;;10.47;100.00;99916.67;1667459;85;21071;-66
2022/10/31 02:41:22;;;;;;;52.30;12.33;;;;;;;10.50;100.00;99918.28;1670116;85;21118;-66
2022/10/31 02:44:26;;;;;;;34.05;12.10;;;;;;;10.51;100.00;99916.92;1649563;85;21159;-66
2022/10/31 02:47:03;;;;;;;71.02;13.05;;;;;;;10.55;100.00;99916.31;1645093;85;21210;-66
2022/10/31 02:49:44;;;;;;;54.03;13.25;;;;;;;10.57;100.00;99916.27;1693543;83;21093;-66
2022/10/31 02:52:29;;;;;;;101.10;14.13;;;;;;;10.62;100.00;99920.36;1645504;85;21588;-66
2022/10/31 02:54:56;;;;;;;25.85;13.40;;;;;;;10.65;100.00;99922.00;1672929;84;21557;-66
2022/10/31 02:57:32;;;;;;;31.05;12.10;;;;;;;10.67;100.00;99918.41;1683653;84;26143;-66
2022/10/31 03:00:04;;;;;;;55.55;13.32;;;;;;;10.71;100.00;99917.80;1662711;84;21737;-66
2022/10/31 03:02:51;;;;;;;42.20;13.10;;;;;;;10.76;100.00;99921.06;1711968;82;21562;-66
2022/10/31 03:05:57;;;;;;;35.80;13.22;;;;;;;10.75;100.00;99920.65;1720353;82;20990;-66
2022/10/31 03:08:44;;;;;;;32.60;13.72;;;;;;;10.76;100.00;99927.59;1723774;82;21052;-66
2022/10/31 03:11:11;;;;;;;34.30;14.23;;;;;;;10.79;100.00;99930.52;1702338;82;20997;-65
2022/10/31 03:13:52;;;;;;;23.52;14.05;;;;;;;10.82;100.00;99931.69;1710610;82;21590;-66
2022/10/31 03:16:41;;;;;;;29.32;13.53;;;;;;;10.83;100.00;99927.69;1704829;84;20961;-66
2022/10/31 03:19:16;;;;;;;24.55;13.83;;;;;;;10.84;100.00;99924.17;1653721;85;21076;-66
2022/10/31 03:21:47;;;;;;;25.75;14.00;;;;;;;10.85;100.00;99924.55;1667427;84;21088;-66
2022/10/31 03:24:15;;;;;;;30.25;13.40;;;;;;;10.88;100.00;99923.57;1669868;85;20988;-66
2022/10/31 03:26:47;;;;;;;22.93;14.47;;;;;;;10.92;100.00;99925.98;1678604;84;21105;-66
2022/10/31 03:29:17;;;;;;;24.80;14.43;;;;;;;10.93;100.00;99921.14;1678097;84;21582;-65
2022/10/31 03:31:57;;;;;;;23.60;15.13;;;;;;;10.95;100.00;99927.15;1686942;83;21110;-66
2022/10/31 03:34:24;;;;;;;28.02;14.23;;;;;;;10.98;100.00;99921.78;1678389;83;21119;-66
2022/10/31 03:36:55;;;;;;;30.17;14.47;;;;;;;11.00;100.00;99923.00;1714435;82;20953;-66
2022/10/31 03:39:23;;;;;;;21.70;15.80;;;;;;;11.03;100.00;99928.55;1720484;82;21240;-65
2022/10/31 03:42:04;;;;;;;19.92;14.90;;;;;;;11.06;100.00;99920.56;1713411;82;21018;-66
2022/10/31 03:44:33;;;;;;;27.42;14.38;;;;;;;11.09;100.00;99928.27;1713786;82;21004;-66
2022/10/31 03:47:02;;;;;;;26.87;17.25;;;;;;;11.11;100.00;99922.52;1717471;82;21578;-66
2022/10/31 03:49:30;;;;;;;61.20;28.87;;;;;;;11.12;100.00;99928.15;1715989;82;21015;-65
2022/10/31 03:52:20;;;;;;;52.95;30.75;;;;;;;11.11;100.00;99917.28;1721704;81;21872;-66
2022/10/31 03:54:55;;;;;;;36.63;21.12;;;;;;;11.11;100.00;99922.52;1713448;82;21494;-65
2022/10/31 03:57:29;;;;;;;25.80;17.02;;;;;;;11.09;100.00;99917.37;1717810;82;21061;-66
2022/10/31 04:00:07;;;;;;;26.42;17.35;;;;;;;11.10;100.00;99915.60;1696671;83;21033;-66
2022/10/31 04:02:38;;;;;;;23.00;16.67;;;;;;;11.07;100.00;99913.98;1712255;82;21100;-66
2022/10/31 04:05:06;;;;;;;22.82;16.10;;;;;;;11.07;100.00;99920.97;1711294;82;22290;-66
2022/10/31 04:07:40;;;;;;;23.95;17.12;;;;;;;11.05;100.00;99912.34;1709974;82;20942;-66
2022/10/31 04:10:11;;;;;;;23.22;16.95;;;;;;;11.03;100.00;99912.88;1683490;82;21115;-66
2022/10/31 04:12:40;;;;;;;24.77;18.42;;;;;;;10.98;100.00;99915.25;1706951;82;20961;-66
2022/10/31 04:15:10;;;;;;;26.57;18.23;;;;;;;10.96;100.00;99906.62;1712815;82;21053;-66
2022/10/31 04:17:40;;;;;;;25.80;18.45;;;;;;;10.90;100.00;99909.53;1712850;82;21099;-66
2022/10/31 04:20:08;;;;;;;26.33;18.98;;;;;;;10.88;100.00;99906.59;1707679;82;20965;-66
2022/10/31 04:22:35;;;;;;;20.02;17.07;;;;;;;10.89;100.00;99915.65;1706768;82;21020;-66
2022/10/31 04:25:02;;;;;;;28.75;18.20;;;;;;;10.88;100.00;99913.12;1712868;82;21588;-66
2022/10/31 04:27:28;;;;;;;22.13;17.65;;;;;;;10.89;100.00;99916.95;1712803;82;20996;-66
2022/10/31 04:29:55;;;;;;;30.33;19.63;;;;;;;10.90;100.00;99913.45;1714810;82;21682;-66
2022/10/31 04:32:22;;;;;;;22.07;17.45;;;;;;;10.93;100.00;99917.22;1708180;82;21711;-66
2022/10/31 04:34:48;;;;;;;36.37;17.97;;;;;;;10.93;100.00;99917.22;1713144;82;20902;-66
2022/10/31 04:37:15;;;;;;;22.15;17.17;;;;;;;10.91;100.00;99915.59;1714303;81;21595;-66
2022/10/31 04:39:42;;;;;;;22.80;17.07;;;;;;;10.87;100.00;99907.05;1711595;82;21026;-67
2022/10/31 04:42:08;;;;;;;21.07;17.10;;;;;;;10.86;100.00;99907.95;1717682;82;21588;-66
2022/10/31 04:44:35;;;;;;;22.63;16.40;;;;;;;10.84;100.00;99903.28;1709740;82;21040;-66
2022/10/31 04:47:01;;;;;;;22.80;16.90;;;;;;;10.83;100.00;99905.48;1703497;81;21207;-66
2022/10/31 04:49:33;;;;;;;28.42;17.82;;;;;;;10.82;100.00;99893.35;1706690;82;21293;-66
2022/10/31 04:51:56;;;;;;;28.47;17.32;;;;;;;10.82;100.00;99901.19;1706183;82;21002;-66
2022/10/31 04:54:23;;;;;;;25.43;16.67;;;;;;;10.82;100.00;99893.35;1664081;82;21110;-66
2022/10/31 04:56:50;;;;;;;21.47;15.37;;;;;;;10.83;100.00;99902.87;1694780;83;21528;-66
2022/10/31 04:59:17;;;;;;;24.82;16.25;;;;;;;10.84;100.00;99900.67;1682645;83;21123;-66
2022/10/31 05:01:43;;;;;;;23.65;17.77;;;;;;;10.86;100.00;99902.73;1680447;83;21402;-66
2022/10/31 05:04:10;;;;;;;27.23;17.60;;;;;;;10.88;100.00;99896.98;1697295;83;20929;-66
2022/10/31 05:06:37;;;;;;;23.25;16.67;;;;;;;10.91;100.00;99903.38;1695301;83;21504;-67
2022/10/31 05:09:04;;;;;;;24.50;17.87;;;;;;;10.93;100.00;99901.55;1688157;83;20992;-67
2022/10/31 05:11:31;;;;;;;25.60;17.23;;;;;;;10.95;100.00;99901.02;1680243;83;20963;-66
2022/10/31 05:13:57;;;;;;;22.20;16.43;;;;;;;10.96;100.00;99901.40;1693146;83;21537;-66
2022/10/31 05:16:24;;;;;;;31.00;16.80;;;;;;;11.00;100.00;99909.09;1683234;84;21231;-66
2022/10/31 05:18:51;;;;;;;26.27;16.48;;;;;;;11.01;100.00;99904.25;1680053;83;23229;-66
2022/10/31 05:21:18;;;;;;;28.63;17.10;;;;;;;11.05;100.00;99908.43;1695052;83;20993;-66
2022/10/31 05:23:44;;;;;;;23.45;17.25;;;;;;;11.07;100.00;99907.91;1684476;83;21001;-67
2022/10/31 05:26:11;;;;;;;23.70;17.43;;;;;;;11.10;100.00;99905.15;1683504;84;21107;-66
2022/10/31 05:28:38;;;;;;;26.70;17.60;;;;;;;11.13;100.00;99918.07;1681221;84;21068;-66
2022/10/31 05:31:05;;;;;;;23.93;16.30;;;;;;;11.16;100.00;99917.92;1683485;83;22239;-66
2022/10/31 05:33:31;;;;;;;21.70;15.85;;;;;;;11.20;100.00;99919.46;1683903;83;21000;-67
2022/10/31 05:35:58;;;;;;;22.67;15.77;;;;;;;11.23;100.00;99933.72;1681739;83;21035;-66
2022/10/31 05:38:25;;;;;;;26.53;14.87;;;;;;;11.23;100.00;99933.72;1682460;83;21036;-67
2022/10/31 05:41:02;;;;;;;21.75;15.60;;;;;;;11.25;100.00;99943.62;1686342;83;21109;-66
2022/10/31 05:43:29;;;;;;;20.17;14.30;;;;;;;11.26;100.00;99945.34;1683074;83;21092;-66
2022/10/31 05:45:56;;;;;;;22.93;15.65;;;;;;;11.27;100.00;99947.48;1682746;83;20948;-67
2022/10/31 05:48:25;;;;;;;;;;;;;;;11.26;100.00;99950.56;1695254;83;20997;-66
2022/10/31 05:50:52;;;;;;;22.95;15.98;;;;;;;11.28;100.00;99947.87;1678180;83;20740;-66
2022/10/31 05:53:18;;;;;;;19.92;14.03;;;;;;;11.26;100.00;99945.34;1688946;83;21190;-66
2022/10/31 05:55:46;;;;;;;20.92;15.35;;;;;;;11.26;100.00;99947.08;1686714;83;21343;-66
2022/10/31 05:58:13;;;;;;;27.32;15.72;;;;;;;11.28;100.00;99948.70;1656539;85;21013;-66
2022/10/31 06:00:40;;;;;;;22.10;16.40;;;;;;;11.27;100.00;99945.72;1684670;83;21041;-66
2022/10/31 06:03:09;;;;;;;33.90;15.95;;;;;;;11.30;100.00;99949.49;1658430;85;21057;-67
2022/10/31 06:05:36;;;;;;;20.52;15.63;;;;;;;11.32;100.00;99942.44;1694199;83;21578;-66
2022/10/31 06:08:03;;;;;;;31.45;15.68;;;;;;;11.34;100.00;99939.73;1662773;85;20969;-66
2022/10/31 06:10:30;;;;;;;20.52;16.23;;;;;;;11.33;100.00;99931.05;1653876;85;21674;-66
2022/10/31 06:12:57;;;;;;;23.62;16.85;;;;;;;11.33;100.00;99931.05;1678851;83;21549;-66
2022/10/31 06:15:23;;;;;;;26.67;16.60;;;;;;;11.33;100.00;99941.50;1684381;83;20948;-66
2022/10/31 06:18:02;;;;;;;24.25;17.20;;;;;;;11.33;100.00;99948.04;1656858;85;21206;-66
2022/10/31 06:20:28;;;;;;;23.85;16.95;;;;;;;11.16;100.00;99927.08;1656078;85;21062;-66
2022/10/31 06:22:57;;;;;;;19.27;15.18;;;;;;;11.16;100.00;99927.08;1683552;83;21064;-66
2022/10/31 06:25:25;;;;;;;27.00;16.05;;;;;;;11.31;100.00;99948.56;1713259;82;20957;-65
2022/10/31 06:27:52;;;;;;;25.08;15.70;;;;;;;11.33;100.00;99949.34;1717753;82;21297;-66
2022/10/31 06:30:19;;;;;;;23.40;16.45;;;;;;;11.37;100.00;99960.06;1712422;82;21161;-66
2022/10/31 06:32:46;;;;;;;22.82;15.80;;;;;;;11.41;100.00;99955.06;1711536;82;26736;-66
2022/10/31 06:35:12;;;;;;;22.03;15.63;;;;;;;11.47;100.00;99957.02;1715479;82;21087;-66
2022/10/31 06:37:39;;;;;;;21.73;15.50;;;;;;;11.53;100.00;99961.95;1714669;82;21096;-66
2022/10/31 06:40:07;;;;;;;24.77;16.67;;;;;;;11.56;100.00;99965.25;1716314;82;21000;-65
2022/10/31 06:42:34;;;;;;;21.37;15.75;;;;;;;11.62;100.00;99962.80;1713809;82;21031;-66
2022/10/31 06:45:00;;;;;;;28.27;16.63;;;;;;;11.66;100.00;99959.14;1714811;82;21503;-66
2022/10/31 06:47:27;;;;;;;24.63;16.30;;;;;;;11.68;100.00;99956.44;1713046;82;21080;-66
2022/10/31 06:49:54;;;;;;;23.23;16.70;;;;;;;11.71;100.00;99962.39;1714236;82;21056;-66
2022/10/31 06:52:23;;;;;;;23.07;16.83;;;;;;;11.74;100.00;99962.70;1713544;82;21100;-66
2022/10/31 06:54:49;;;;;;;24.37;16.90;;;;;;;11.76;100.00;99961.71;1712451;82;21825;-66
2022/10/31 06:57:16;;;;;;;32.17;17.17;;;;;;;11.78;100.00;99962.46;1712899;82;21154;-66
2022/10/31 06:59:43;;;;;;;26.15;17.65;;;;;;;11.84;100.00;99970.47;1711922;82;21091;-66
2022/10/31 07:02:10;;;;;;;24.52;18.15;;;;;;;11.89;100.00;99972.91;1712169;82;21016;-65
2022/10/31 07:04:39;;;;;;;22.60;16.75;;;;;;;11.98;100.00;99974.60;1712969;82;20996;-65
2022/10/31 07:07:09;;;;;;;21.57;16.77;;;;;;;11.98;100.00;99974.60;1712286;82;20958;-65
2022/10/31 07:09:36;;;;;;;23.65;17.65;;;;;;;12.02;100.00;99975.32;1715281;82;21247;-66
2022/10/31 07:12:03;;;;;;;29.47;17.00;;;;;;;12.06;100.00;99978.16;1713359;82;21096;-66
2022/10/31 07:14:30;;;;;;;30.00;19.12;;;;;;;12.10;100.00;99982.34;1715862;82;21008;-66
2022/10/31 07:16:57;;;;;;;30.07;18.37;;;;;;;12.12;100.00;99983.09;1713675;82;20961;-65
2022/10/31 07:19:25;;;;;;;28.23;18.67;;;;;;;12.12;100.00;99988.32;1712618;82;21641;-65
2022/10/31 07:21:52;;;;;;;26.05;18.70;;;;;;;12.16;100.00;99989.88;1712166;82;21144;-65
2022/10/31 07:24:18;;;;;;;37.10;19.77;;;;;;;12.23;100.00;99991.25;1711752;82;21016;-65
2022/10/31 07:26:47;;;;;;;35.73;20.40;;;;;;;12.27;100.00;99989.35;1715736;82;21783;-66
2022/10/31 07:29:14;;;;;;;26.25;19.30;;;;;;;12.30;100.00;99992.66;1711461;82;21343;-66
2022/10/31 07:31:40;;;;;;;24.70;19.67;;;;;;;12.36;100.00;99986.73;1711807;82;21091;-67
2022/10/31 07:34:09;;;;;;;42.90;20.77;;;;;;;12.41;100.00;99984.27;1712025;82;21432;-67
2022/10/31 07:36:36;;;;;;;32.05;20.10;;;;;;;12.46;100.00;99977.46;1712738;82;20949;-66
2022/10/31 07:39:03;;;;;;;26.55;21.23;;;;;;;12.53;100.00;99994.58;1717258;82;21178;-66
2022/10/31 07:41:30;;;;;;;29.50;19.87;;;;;;;12.53;100.00;99986.25;1712160;82;21140;-67
2022/10/31 07:43:56;;;;;;;35.20;20.65;;;;;;;12.56;100.00;99989.64;1711067;82;20969;-67
2022/10/31 07:46:23;;;;;;;32.30;21.40;;;;;;;12.56;100.00;99998.81;1709852;82;21454;-68
2022/10/31 07:48:51;;;;;;;25.92;20.45;;;;;;;12.63;100.00;100006.29;1680338;83;21771;-66
2022/10/31 07:51:18;;;;;;;28.90;20.08;;;;;;;12.68;100.00;100008.18;1714975;82;20963;-67
2022/10/31 07:53:46;;;;;;;33.20;21.87;;;;;;;12.72;100.00;100005.80;1715379;82;21058;-67
2022/10/31 07:56:14;;;;;;;29.60;21.75;;;;;;;12.81;100.00;100002.33;1712764;82;21143;-68
2022/10/31 07:58:41;;;;;;;30.30;21.40;;;;;;;12.88;100.00;100001.94;1712499;82;21510;-67
2022/10/31 08:01:07;;;;;;;31.45;23.02;;;;;;;12.94;100.00;100006.02;1698501;82;21079;-67
2022/10/31 08:03:34;;;;;;;29.37;21.68;;;;;;;13.00;100.00;100003.06;1710246;82;21591;-67
2022/10/31 08:06:01;;;;;;;33.58;23.02;;;;;;;13.06;100.00;99997.95;1681948;83;21828;-66
2022/10/31 08:08:28;;;;;;;33.92;22.15;;;;;;;13.10;100.00;100002.94;1682295;83;20961;-67
2022/10/31 08:10:55;;;;;;;28.40;21.70;;;;;;;13.17;100.00;100003.00;1710594;82;21815;-66
2022/10/31 08:13:22;;;;;;;33.83;23.07;;;;;;;13.26;100.00;99997.76;1714811;82;20986;-66
2022/10/31 08:15:51;;;;;;;33.33;22.47;;;;;;;13.33;100.00;99990.39;1714436;82;20959;-65
2022/10/31 08:18:17;;;;;;;30.95;21.77;;;;;;;13.42;100.00;99995.16;1710022;82;20962;-66
2022/10/31 08:20:44;;;;;;;32.28;22.58;;;;;;;13.50;100.00;100004.77;1711523;82;20984;-66
2022/10/31 08:23:13;;;;;;;31.73;22.37;;;;;;;13.57;100.00;100008.73;1712264;82;22110;-68
2022/10/31 08:25:42;;;;;;;28.52;22.27;;;;;;;13.66;100.00;100010.84;1716707;82;21032;-66
2022/10/31 08:28:11;;;;;;;33.92;24.27;;;;;;;13.73;100.00;100000.03;1708593;82;21000;-67
2022/10/31 08:30:39;;;;;;;30.05;22.58;;;;;;;13.70;100.00;100005.45;1716746;82;20997;-67
2022/10/31 08:33:16;;;;;;;32.10;22.52;;;;;;;13.75;100.00;100000.77;1712477;82;20965;-68
2022/10/31 08:35:44;;;;;;;36.23;22.50;;;;;;;13.82;100.00;100000.34;1706953;82;21123;-67
2022/10/31 08:38:12;;;;;;;29.32;21.37;;;;;;;13.89;100.00;99995.59;1697507;82;21538;-67
2022/10/31 08:40:39;;;;;;;35.90;22.20;;;;;;;13.93;100.00;99994.49;1718042;82;21028;-67
2022/10/31 08:43:12;;;;;;;;;;;;;;;13.98;100.00;99989.83;1712975;81;21498;-67
2022/10/31 08:45:38;;;;;;;32.35;22.67;;;;;;;14.02;100.00;99991.34;1711863;82;20226;-67
2022/10/31 08:48:12;;;;;;;28.85;21.23;;;;;;;14.06;100.00;99990.24;1714388;82;21089;-67
2022/10/31 08:50:40;;;;;;;33.92;22.65;;;;;;;14.13;100.00;99984.63;1717182;82;21040;-67
2022/10/31 08:53:14;;;;;;;;;;;;;;;14.18;100.00;99987.84;1718228;82;20925;-67
2022/10/31 08:55:43;;;;;;;27.65;20.77;;;;;;;14.24;100.00;99987.48;1710157;82;20430;-67
2022/10/31 08:58:19;;;;;;;36.45;22.77;;;;;;;14.36;100.00;99989.38;1713216;82;20976;-67
2022/10/31 09:00:48;;;;;;;30.53;23.00;;;;;;;14.51;100.00;99988.49;1710379;82;21688;-67
2022/10/31 09:03:19;;;;;;;32.42;22.15;;;;;;;14.55;100.00;99987.39;1716733;82;20958;-66
2022/10/31 09:05:46;;;;;;;36.33;21.05;;;;;;;14.59;100.00;99985.89;1706645;82;21012;-67
2022/10/31 09:08:14;;;;;;;27.32;20.00;;;;;;;14.64;100.00;99982.53;1712306;82;21000;-67
2022/10/31 09:10:41;;;;;;;26.20;22.22;;;;;;;14.71;100.00;99983.86;1716416;81;21629;-67
2022/10/31 09:13:15;;;;;;;28.62;20.77;;;;;;;14.70;100.00;99986.09;1691385;82;21579;-67
2022/10/31 09:15:44;;;;;;;28.75;21.40;;;;;;;14.75;100.00;99970.90;1719224;82;21071;-67
2022/10/31 09:18:13;;;;;;;29.10;21.20;;;;;;;14.83;100.00;99975.23;1714365;82;21501;-68
2022/10/31 09:20:42;;;;;;;28.47;21.85;;;;;;;14.93;100.00;99979.00;1721972;82;20953;-68
2022/10/31 09:23:15;;;;;;;29.07;20.68;;;;;;;15.02;100.00;99987.26;1716012;82;20959;-68
2022/10/31 09:25:43;;;;;;;26.00;20.12;;;;;;;15.04;100.00;99987.55;1688756;83;21131;-68
2022/10/31 09:28:13;;;;;;;24.98;19.87;;;;;;;15.03;100.00;99991.56;1704214;82;21012;-68
2022/10/31 09:30:40;;;;;;;26.75;21.17;;;;;;;15.03;100.00;99996.83;1716631;82;20973;-68
2022/10/31 09:33:12;;;;;;;;;;;;;;;14.94;100.00;100001.70;1716411;81;21246;-68
2022/10/31 09:35:39;;;;;;;26.37;19.60;;;;;;;14.84;100.00;99998.41;1711707;82;20204;-68
2022/10/31 09:38:10;;;;;;;25.57;18.32;;;;;;;14.82;100.00;100001.15;1690860;83;22344;-68
2022/10/31 09:40:43;;;;;;;27.25;19.62;;;;;;;14.78;100.00;99999.15;1693767;83;20987;-68
2022/10/31 09:43:36;;;;;;;23.60;17.92;;;;;;;14.74;100.00;99996.81;1684524;83;21725;-68
2022/10/31 09:46:14;;;;;;;27.20;18.48;;;;;;;14.74;100.00;100009.96;1657103;85;21035;-68
2022/10/31 09:49:40;;;;;;;26.20;19.12;;;;;;;14.72;100.00;100014.45;1721000;81;21062;-68
2022/10/31 09:52:33;;;;;;;24.02;18.48;;;;;;;14.71;100.00;100014.93;1706952;82;21154;-68
2022/10/31 09:55:08;;;;;;;24.37;17.60;;;;;;;14.70;100.00;100013.69;1706059;82;21010;-68
2022/10/31 09:57:39;;;;;;;25.25;19.45;;;;;;;14.65;100.00;100013.14;1708279;82;20951;-68
2022/10/31 10:00:12;;;;;;;21.40;18.30;;;;;;;14.65;100.00;100018.41;1712450;82;21008;-67
2022/10/31 10:02:44;;;;;;;25.23;17.55;;;;;;;14.68;100.00;100015.59;1709215;82;21016;-68
2022/10/31 10:05:18;;;;;;;21.80;17.30;;;;;;;14.69;100.00;100014.64;1712095;82;21501;-68
2022/10/31 10:08:10;;;;;;;24.30;17.37;;;;;;;14.67;100.00;100018.66;1702795;82;21087;-68
2022/10/31 10:10:57;;;;;;;23.45;18.30;;;;;;;14.60;100.00;100019.14;1710484;82;21024;-68
2022/10/31 10:13:41;;;;;;;28.32;17.95;;;;;;;14.59;100.00;100009.10;1710659;82;20980;-68
2022/10/31 10:16:19;;;;;;;23.10;18.42;;;;;;;14.54;100.00;100011.98;1708217;82;20997;-68
2022/10/31 10:19:08;;;;;;;26.87;19.02;;;;;;;14.54;100.00;100014.62;1713475;81;21535;-67
2022/10/31 10:22:12;;;;;;;25.82;18.05;;;;;;;14.59;100.00;100014.80;1682235;83;21024;-68
2022/10/31 10:25:13;;;;;;;23.15;18.05;;;;;;;14.63;100.00;100009.75;1680826;83;20996;-68
2022/10/31 10:28:03;;;;;;;22.75;17.10;;;;;;;14.53;100.00;100012.91;1679922;83;21094;-68
2022/10/31 10:31:05;;;;;;;21.17;16.60;;;;;;;14.43;100.00;100019.63;1681657;83;21094;-68
2022/10/31 10:33:37;;;;;;;22.58;17.20;;;;;;;14.31;100.00;100026.44;1680491;83;21309;-67
2022/10/31 10:36:12;;;;;;;20.23;16.62;;;;;;;14.23;100.00;100014.69;1680549;84;21611;-68
2022/10/31 10:38:56;;;;;;;24.87;17.75;;;;;;;14.19;100.00;100023.66;1683891;83;21162;-67
2022/10/31 10:41:30;;;;;;;19.55;16.93;;;;;;;14.13;100.00;100021.39;1722727;81;21041;-67
2022/10/31 10:43:56;;;;;;;23.98;17.25;;;;;;;14.09;100.00;100024.20;1712603;82;20981;-67
2022/10/31 10:49:52;;;;;;;28.05;18.67;;;;;;;14.02;100.00;100020.22;1712476;81;21097;-68
2022/10/31 10:55:44;;;;;;;23.25;19.12;;;;;;;14.00;100.00;100008.98;1881991;75;22772;-67
2022/10/31 10:58:12;;;;;;;20.23;17.32;;;;;;;13.91;100.00;100008.16;1839505;76;20934;-67
2022/10/31 11:00:42;;;;;;;24.72;18.37;;;;;;;13.94;100.00;100011.09;1834410;76;21873;-67
2022/10/31 11:03:10;;;;;;;24.35;18.07;;;;;;;13.97;100.00;100012.22;1831648;77;20985;-67
2022/10/31 11:05:51;;;;;;;26.68;19.15;;;;;;;13.97;100.00;100015.69;1836386;77;20938;-67
2022/10/31 11:08:34;;;;;;;24.87;19.87;;;;;;;14.04;100.00;100020.98;1847013;77;20918;-68
2022/10/31 11:11:18;;;;;;;20.97;17.12;;;;;;;14.05;100.00;100018.73;1835301;76;21906;-66
2022/10/31 11:13:54;;;;;;;28.12;18.02;;;;;;;14.03;100.00;100016.67;1834242;76;21898;-68
2022/10/31 11:16:37;;;;;;;24.52;18.75;;;;;;;13.99;100.00;100021.70;1841412;76;20930;-68
2022/10/31 11:19:28;;;;;;;23.12;18.45;;;;;;;13.95;100.00;100013.64;1854900;75;22137;-68
2022/10/31 11:22:08;;;;;;;22.55;18.52;;;;;;;13.89;100.00;100021.83;1857850;77;21032;-67
2022/10/31 11:24:41;;;;;;;24.65;18.87;;;;;;;13.87;100.00;100015.84;1838068;75;21056;-67
2022/10/31 11:27:18;;;;;;;23.80;18.55;;;;;;;13.74;100.00;100020.08;1849710;77;21867;-66
2022/10/31 11:29:47;;;;;;;29.25;20.50;;;;;;;13.74;100.00;100024.02;1849229;75;21008;-66
2022/10/31 11:32:23;;;;;;;28.85;19.60;;;;;;;13.56;100.00;100026.73;1856810;77;20906;-67
2022/10/31 11:34:54;;;;;;;26.20;19.62;;;;;;;13.57;100.00;100019.23;1841903;76;21468;-67
2022/10/31 11:37:28;;;;;;;22.67;19.05;;;;;;;13.61;100.00;100015.52;1860620;76;20973;-67
2022/10/31 11:40:02;;;;;;;25.55;19.57;;;;;;;13.62;100.00;100014.58;1846208;77;21344;-67